Time;durP1;ratioP1;P1;durP2;ratioP2;P2;SDS_P1;SDS_P2;PMS_P1;PMS_P2;Temp;Humidity;BMP_temperature;BMP_pressure;BME280_temperature;BME280_humidity;BME280_pressure;Samples;Min_cycle;Max_cycle;Signal;HPM_P1;HPM_P2
2021/04/13 00:02:10;;;;;;;13.85;3.03;;;;;;;;;;5065652;28;20044;-46
2021/04/13 00:04:37;;;;;;;9.95;3.33;;;;;;;;;;5067587;28;20492;-47
2021/04/13 00:07:03;;;;;;;10.93;2.83;;;;;;;;;;5067502;28;20063;-47
2021/04/13 00:09:31;;;;;;;19.90;3.35;;;;;;;;;;5068643;28;20047;-46
2021/04/13 00:12:09;;;;;;;22.13;3.47;;;;;;;;;;5067776;28;20088;-46
2021/04/13 00:14:37;;;;;;;16.00;3.90;;;;;;;;;;5065066;28;20044;-45
2021/04/13 00:17:07;;;;;;;18.65;3.38;;;;;;;;;;5066886;28;20044;-46
2021/04/13 00:19:39;;;;;;;12.43;2.83;;;;;;;;;;5067130;28;20043;-47
2021/04/13 00:22:05;;;;;;;18.85;2.80;;;;;;;;;;5065208;28;21082;-46
2021/04/13 00:24:31;;;;;;;20.90;3.45;;;;;;;;;;5064420;28;20124;-46
2021/04/13 00:26:59;;;;;;;12.00;3.28;;;;;;;;;;5065551;28;20052;-46
2021/04/13 00:29:28;;;;;;;14.95;3.38;;;;;;;;;;5065547;28;20044;-47
2021/04/13 00:31:56;;;;;;;24.00;3.63;;;;;;;;;;5065352;28;20041;-46
2021/04/13 00:34:23;;;;;;;9.68;3.70;;;;;;;;;;5067263;28;20040;-46
2021/04/13 00:37:08;;;;;;;8.38;3.28;;;;;;;;;;5065850;28;20052;-45
2021/04/13 00:39:34;;;;;;;11.60;3.58;;;;;;;;;;5065936;28;20098;-47
2021/04/13 00:42:11;;;;;;;14.27;3.22;;;;;;;;;;5062723;28;20051;-48
2021/04/13 00:44:46;;;;;;;17.45;3.53;;;;;;;;;;5068002;28;20090;-46
2021/04/13 00:47:16;;;;;;;12.73;3.92;;;;;;;;;;5066779;28;20071;-47
2021/04/13 00:49:48;;;;;;;14.70;3.40;;;;;;;;;;5067939;28;20106;-46
2021/04/13 00:52:17;;;;;;;24.10;3.92;;;;;;;;;;5064230;28;20055;-46
2021/04/13 00:54:46;;;;;;;15.77;3.55;;;;;;;;;;5065637;28;20443;-46
2021/04/13 00:57:16;;;;;;;12.40;3.28;;;;;;;;;;5062258;28;20044;-49
2021/04/13 00:59:43;;;;;;;20.50;3.92;;;;;;;;;;5063969;28;20125;-45
2021/04/13 01:02:15;;;;;;;14.63;4.03;;;;;;;;;;5063963;28;20077;-46
2021/04/13 01:04:47;;;;;;;11.75;3.85;;;;;;;;;;5067408;28;20040;-48
2021/04/13 01:07:18;;;;;;;18.42;5.07;;;;;;;;;;5065801;28;20512;-47
2021/04/13 01:09:49;;;;;;;24.67;4.32;;;;;;;;;;5064657;28;20048;-46
2021/04/13 01:12:21;;;;;;;18.58;4.50;;;;;;;;;;5064728;28;20037;-45
2021/04/13 01:14:47;;;;;;;22.90;4.78;;;;;;;;;;5068525;28;20082;-46
2021/04/13 01:17:14;;;;;;;23.37;5.17;;;;;;;;;;5064032;28;20037;-45
2021/04/13 01:19:58;;;;;;;16.63;4.40;;;;;;;;;;5065774;28;20044;-46
2021/04/13 01:22:31;;;;;;;28.65;5.38;;;;;;;;;;5066989;28;20501;-46
2021/04/13 01:24:59;;;;;;;21.58;4.95;;;;;;;;;;5063283;28;20049;-46
2021/04/13 01:27:25;;;;;;;18.80;5.00;;;;;;;;;;5068374;28;20140;-47
2021/04/13 01:29:52;;;;;;;11.90;4.75;;;;;;;;;;5067368;28;20458;-47
2021/04/13 01:32:20;;;;;;;19.45;5.50;;;;;;;;;;5065419;28;20063;-46
2021/04/13 01:35:16;;;;;;;25.88;5.32;;;;;;;;;;5065593;28;20055;-46
2021/04/13 01:40:22;;;;;;;21.15;5.05;;;;;;;;;;5063478;28;20064;-45
2021/04/13 01:42:49;;;;;;;25.17;5.28;;;;;;;;;;5061130;28;20496;-46
2021/04/13 01:45:20;;;;;;;23.40;5.07;;;;;;;;;;5066756;28;20041;-46
2021/04/13 01:47:47;;;;;;;21.13;5.75;;;;;;;;;;5064920;28;20044;-47
2021/04/13 01:50:21;;;;;;;27.02;6.05;;;;;;;;;;5063512;28;20048;-45
2021/04/13 01:52:48;;;;;;;29.75;6.55;;;;;;;;;;5065849;28;20048;-46
2021/04/13 01:55:21;;;;;;;22.40;5.78;;;;;;;;;;5063733;28;20056;-47
2021/04/13 01:57:56;;;;;;;29.95;6.22;;;;;;;;;;5066934;28;20078;-46
2021/04/13 02:00:22;;;;;;;21.80;6.22;;;;;;;;;;5066553;28;20049;-46
2021/04/13 02:02:52;;;;;;;39.25;7.25;;;;;;;;;;5064037;28;20099;-47
2021/04/13 02:05:25;;;;;;;46.33;6.65;;;;;;;;;;5061790;28;20062;-46
2021/04/13 02:07:58;;;;;;;30.52;7.00;;;;;;;;;;5070566;28;20396;-46
2021/04/13 02:10:37;;;;;;;35.35;6.85;;;;;;;;;;5067742;28;20049;-45
2021/04/13 02:13:05;;;;;;;34.70;7.22;;;;;;;;;;5069718;28;20063;-47
2021/04/13 02:15:43;;;;;;;32.63;8.00;;;;;;;;;;5067433;28;20041;-46
2021/04/13 02:18:30;;;;;;;26.52;7.50;;;;;;;;;;5068351;28;20052;-46
2021/04/13 02:20:57;;;;;;;28.35;8.20;;;;;;;;;;5064597;28;20508;-49
2021/04/13 02:23:25;;;;;;;28.17;8.23;;;;;;;;;;5068029;28;20044;-48
2021/04/13 02:25:51;;;;;;;;;;;;;;;;;;5069008;28;20041;-46
2021/04/13 02:28:18;;;;;;;28.58;8.07;;;;;;;;;;5069083;28;19962;-46
2021/04/13 02:30:46;;;;;;;25.60;8.50;;;;;;;;;;5068794;28;20417;-48
2021/04/13 02:33:20;;;;;;;27.70;7.95;;;;;;;;;;5064364;28;20045;-47
2021/04/13 02:35:47;;;;;;;31.90;7.53;;;;;;;;;;5069547;28;20040;-46
2021/04/13 02:38:19;;;;;;;30.58;7.82;;;;;;;;;;5069978;28;20048;-46
2021/04/13 02:40:53;;;;;;;35.55;8.45;;;;;;;;;;5064702;28;20105;-48
2021/04/13 02:43:31;;;;;;;20.77;7.85;;;;;;;;;;5067540;28;20139;-46
2021/04/13 02:46:00;;;;;;;30.48;7.45;;;;;;;;;;5067001;28;20500;-48
2021/04/13 02:48:27;;;;;;;34.00;7.95;;;;;;;;;;5067530;28;20045;-47
2021/04/13 02:50:55;;;;;;;25.60;7.85;;;;;;;;;;5065960;28;20037;-46
2021/04/13 02:53:25;;;;;;;28.38;7.68;;;;;;;;;;5066182;28;20120;-46
2021/04/13 02:55:53;;;;;;;28.00;7.30;;;;;;;;;;5068866;28;20118;-46
2021/04/13 02:58:21;;;;;;;28.23;7.32;;;;;;;;;;5067625;28;20048;-46
2021/04/13 03:00:49;;;;;;;24.63;7.22;;;;;;;;;;5066211;28;20033;-46
2021/04/13 03:03:20;;;;;;;25.40;7.25;;;;;;;;;;5068019;28;20052;-46
2021/04/13 03:05:50;;;;;;;25.88;6.18;;;;;;;;;;5070065;28;20048;-45
2021/04/13 03:08:18;;;;;;;22.80;7.55;;;;;;;;;;5065136;28;20048;-45
2021/04/13 03:10:46;;;;;;;31.27;8.02;;;;;;;;;;5067713;28;20037;-46
2021/04/13 03:13:15;;;;;;;18.83;6.40;;;;;;;;;;5063132;28;20136;-46
2021/04/13 03:15:42;;;;;;;35.83;7.25;;;;;;;;;;5066625;28;20032;-46
2021/04/13 03:18:13;;;;;;;21.70;7.80;;;;;;;;;;5067329;28;20045;-49
2021/04/13 03:20:42;;;;;;;29.80;6.85;;;;;;;;;;5062661;28;20037;-46
2021/04/13 03:23:09;;;;;;;25.10;7.22;;;;;;;;;;5067409;28;20126;-46
2021/04/13 03:25:37;;;;;;;24.42;6.90;;;;;;;;;;5065637;28;20036;-47
2021/04/13 03:28:05;;;;;;;25.17;6.93;;;;;;;;;;5069149;28;20036;-45
2021/04/13 03:30:33;;;;;;;24.67;6.70;;;;;;;;;;5066978;28;20847;-46
2021/04/13 03:33:06;;;;;;;29.23;6.55;;;;;;;;;;5062630;28;20075;-46
2021/04/13 03:35:33;;;;;;;16.92;6.57;;;;;;;;;;5065998;28;20512;-46
2021/04/13 03:38:01;;;;;;;27.35;7.07;;;;;;;;;;5066513;28;20138;-46
2021/04/13 03:40:29;;;;;;;28.75;6.70;;;;;;;;;;5069671;28;20041;-46
2021/04/13 03:43:05;;;;;;;31.77;6.43;;;;;;;;;;5066035;28;20045;-47
2021/04/13 03:45:31;;;;;;;22.77;7.30;;;;;;;;;;5066025;28;20040;-46
2021/04/13 03:48:05;;;;;;;24.50;7.67;;;;;;;;;;5067215;28;20052;-46
2021/04/13 03:50:32;;;;;;;23.60;7.53;;;;;;;;;;5061123;28;20044;-47
2021/04/13 03:53:03;;;;;;;29.33;6.85;;;;;;;;;;5067342;28;20119;-47
2021/04/13 03:55:30;;;;;;;26.73;7.18;;;;;;;;;;5066596;28;20048;-48
2021/04/13 03:57:56;;;;;;;37.22;6.93;;;;;;;;;;5066755;28;20508;-46
2021/04/13 04:00:24;;;;;;;31.23;7.45;;;;;;;;;;5060424;28;20044;-46
2021/04/13 04:02:50;;;;;;;26.60;7.35;;;;;;;;;;5066400;28;20102;-47
2021/04/13 04:05:18;;;;;;;16.33;6.70;;;;;;;;;;5065607;28;20037;-47
2021/04/13 04:08:02;;;;;;;25.98;7.38;;;;;;;;;;5066699;28;20067;-48
2021/04/13 04:10:28;;;;;;;24.25;6.70;;;;;;;;;;5062633;28;20370;-46
2021/04/13 04:13:02;;;;;;;31.17;6.85;;;;;;;;;;5065684;28;20435;-51
2021/04/13 04:15:42;;;;;;;24.08;6.07;;;;;;;;;;5068391;28;20036;-48
2021/04/13 04:18:12;;;;;;;26.50;6.28;;;;;;;;;;5065138;28;20082;-47
2021/04/13 04:20:39;;;;;;;14.35;5.43;;;;;;;;;;5068818;28;20090;-50
2021/04/13 04:23:05;;;;;;;20.60;5.90;;;;;;;;;;5065875;28;20052;-46
2021/04/13 04:25:31;;;;;;;26.48;5.43;;;;;;;;;;5063817;28;20075;-48
2021/04/13 04:27:58;;;;;;;20.95;5.10;;;;;;;;;;5061478;28;20044;-53
2021/04/13 04:30:34;;;;;;;18.48;4.65;;;;;;;;;;5063679;28;20049;-47
2021/04/13 04:33:03;;;;;;;18.17;3.30;;;;;;;;;;5066001;28;20040;-47
2021/04/13 04:35:29;;;;;;;;;;;;;;;;;;5062541;28;20119;-49
2021/04/13 04:38:00;;;;;;;9.70;2.55;;;;;;;;;;5064749;28;19968;-46
2021/04/13 04:40:30;;;;;;;9.00;3.00;;;;;;;;;;5064095;28;20072;-48
2021/04/13 04:42:57;;;;;;;9.83;2.40;;;;;;;;;;5063018;28;20044;-47
2021/04/13 04:45:34;;;;;;;11.13;2.53;;;;;;;;;;5059344;28;20071;-47
2021/04/13 04:48:17;;;;;;;14.50;2.70;;;;;;;;;;5066733;28;20048;-45
2021/04/13 04:50:46;;;;;;;9.95;2.33;;;;;;;;;;5062982;28;20043;-47
2021/04/13 04:53:13;;;;;;;13.35;2.50;;;;;;;;;;5065614;28;20051;-46
2021/04/13 04:55:39;;;;;;;9.32;2.78;;;;;;;;;;5066007;28;20045;-50
2021/04/13 04:58:05;;;;;;;9.10;2.15;;;;;;;;;;5065144;28;20048;-50
2021/04/13 05:00:31;;;;;;;12.02;2.20;;;;;;;;;;5067895;28;20049;-46
2021/04/13 05:02:57;;;;;;;7.53;2.20;;;;;;;;;;5058577;28;20150;-47
2021/04/13 05:05:23;;;;;;;7.32;2.25;;;;;;;;;;5058818;28;20041;-52
2021/04/13 05:07:50;;;;;;;7.13;1.98;;;;;;;;;;5063124;28;20102;-47
2021/04/13 05:10:16;;;;;;;5.72;1.60;;;;;;;;;;5067243;28;20547;-47
2021/04/13 05:12:42;;;;;;;3.75;1.83;;;;;;;;;;5066484;28;20056;-47
2021/04/13 05:15:10;;;;;;;8.30;1.67;;;;;;;;;;5067084;28;20036;-49
2021/04/13 05:17:36;;;;;;;3.92;1.45;;;;;;;;;;5064997;28;20127;-48
2021/04/13 05:20:02;;;;;;;4.82;1.83;;;;;;;;;;5067586;28;20059;-47
2021/04/13 05:22:29;;;;;;;4.55;1.77;;;;;;;;;;5064171;28;20086;-46
2021/04/13 05:24:55;;;;;;;4.25;1.88;;;;;;;;;;5063663;28;20554;-49
2021/04/13 05:27:21;;;;;;;3.72;1.92;;;;;;;;;;5065839;28;20033;-47
2021/04/13 05:29:48;;;;;;;3.97;1.88;;;;;;;;;;5064191;28;20044;-47
2021/04/13 05:32:15;;;;;;;4.75;1.58;;;;;;;;;;5065983;28;20586;-47
2021/04/13 05:34:41;;;;;;;5.95;1.65;;;;;;;;;;5064944;28;20044;-49
2021/04/13 05:37:08;;;;;;;4.00;1.60;;;;;;;;;;5065012;28;20083;-48
2021/04/13 05:39:34;;;;;;;1.50;1.10;;;;;;;;;;5062595;28;20045;-46
2021/04/13 05:42:00;;;;;;;2.30;1.20;;;;;;;;;;5068029;28;20302;-48
2021/04/13 05:44:27;;;;;;;6.85;1.30;;;;;;;;;;5067990;28;20045;-46
2021/04/13 05:46:53;;;;;;;1.73;1.10;;;;;;;;;;5071591;28;20041;-46
2021/04/13 05:49:20;;;;;;;1.90;1.00;;;;;;;;;;5068209;28;20061;-48
2021/04/13 05:51:47;;;;;;;1.38;0.93;;;;;;;;;;5069819;28;20098;-47
2021/04/13 05:54:13;;;;;;;2.80;1.15;;;;;;;;;;5065543;28;20134;-49
2021/04/13 05:56:41;;;;;;;1.67;0.80;;;;;;;;;;5071265;28;20048;-48
2021/04/13 05:59:11;;;;;;;3.83;0.88;;;;;;;;;;5070110;28;20045;-48
2021/04/13 06:01:40;;;;;;;2.95;0.98;;;;;;;;;;5067869;28;20477;-50
2021/04/13 06:04:09;;;;;;;3.72;1.10;;;;;;;;;;5067138;28;20041;-47
2021/04/13 06:06:36;;;;;;;4.60;1.10;;;;;;;;;;5064882;28;20052;-49
2021/04/13 06:09:03;;;;;;;4.45;0.80;;;;;;;;;;5070485;28;20052;-45
2021/04/13 06:11:30;;;;;;;1.17;0.70;;;;;;;;;;5067181;28;20498;-51
2021/04/13 06:14:03;;;;;;;1.67;0.75;;;;;;;;;;5069039;28;20132;-47
2021/04/13 06:16:37;;;;;;;0.50;0.50;;;;;;;;;;5068487;28;20051;-48
2021/04/13 06:19:05;;;;;;;1.65;1.00;;;;;;;;;;5071648;28;20041;-53
2021/04/13 06:21:32;;;;;;;0.85;0.73;;;;;;;;;;5070194;28;20041;-48
2021/04/13 06:23:59;;;;;;;2.55;0.80;;;;;;;;;;5071576;28;20423;-47
2021/04/13 06:26:25;;;;;;;2.67;0.90;;;;;;;;;;5067193;28;20052;-47
2021/04/13 06:28:51;;;;;;;3.78;1.00;;;;;;;;;;5068383;28;20132;-48
2021/04/13 06:31:18;;;;;;;2.40;1.02;;;;;;;;;;5073075;28;20048;-48
2021/04/13 06:33:45;;;;;;;1.33;0.77;;;;;;;;;;5070731;28;20045;-47
2021/04/13 06:36:14;;;;;;;1.45;1.00;;;;;;;;;;5069429;28;20056;-48
2021/04/13 06:38:40;;;;;;;4.38;0.80;;;;;;;;;;5070218;28;20068;-49
2021/04/13 06:41:39;;;;;;;0.85;0.70;;;;;;;;;;5068004;28;20121;-49
2021/04/13 06:44:11;;;;;;;1.85;0.60;;;;;;;;;;5063803;28;20510;-46
2021/04/13 06:46:56;;;;;;;0.70;0.60;;;;;;;;;;5067476;28;20032;-50
2021/04/13 06:49:30;;;;;;;3.15;0.90;;;;;;;;;;5065017;28;20551;-50
2021/04/13 06:52:08;;;;;;;2.38;0.77;;;;;;;;;;5069000;28;20081;-49
2021/04/13 06:54:40;;;;;;;2.97;0.98;;;;;;;;;;5070544;28;20056;-49
2021/04/13 06:57:12;;;;;;;0.90;0.65;;;;;;;;;;5067223;28;20459;-49
2021/04/13 07:00:03;;;;;;;1.45;0.80;;;;;;;;;;5070394;28;20066;-48
2021/04/13 07:02:35;;;;;;;2.35;0.70;;;;;;;;;;5069645;28;20044;-50
2021/04/13 07:05:12;;;;;;;3.55;0.80;;;;;;;;;;5068398;28;20049;-48
2021/04/13 07:07:42;;;;;;;2.08;0.80;;;;;;;;;;5069787;28;20044;-50
2021/04/13 07:10:15;;;;;;;3.30;0.90;;;;;;;;;;5070014;28;20570;-50
2021/04/13 07:13:05;;;;;;;4.07;0.98;;;;;;;;;;5071110;28;20055;-47
2021/04/13 07:15:40;;;;;;;0.70;0.70;;;;;;;;;;5068672;28;20036;-49
2021/04/13 07:18:07;;;;;;;1.73;0.63;;;;;;;;;;5069493;28;20048;-49
2021/04/13 07:20:40;;;;;;;1.83;0.90;;;;;;;;;;5070887;28;20084;-51
2021/04/13 07:23:06;;;;;;;0.70;0.55;;;;;;;;;;5068513;28;20131;-49
2021/04/13 07:25:37;;;;;;;1.95;0.60;;;;;;;;;;5069203;28;20519;-49
2021/04/13 07:28:07;;;;;;;0.68;0.60;;;;;;;;;;5069541;28;20102;-48
2021/04/13 07:30:39;;;;;;;0.75;0.75;;;;;;;;;;5064999;28;20047;-48
2021/04/13 07:33:06;;;;;;;1.98;0.80;;;;;;;;;;5066293;28;20049;-46
2021/04/13 07:35:33;;;;;;;;;;;;;;;;;;5068908;28;20098;-47
2021/04/13 07:38:11;;;;;;;0.90;0.82;;;;;;;;;;5064960;28;19932;-48
2021/04/13 07:40:39;;;;;;;3.27;0.80;;;;;;;;;;5068847;28;20033;-49
2021/04/13 07:43:15;;;;;;;1.10;0.65;;;;;;;;;;5069983;28;20294;-46
2021/04/13 07:45:48;;;;;;;2.33;0.98;;;;;;;;;;5066905;28;20052;-47
2021/04/13 07:48:34;;;;;;;1.50;0.70;;;;;;;;;;5068375;28;20098;-49
2021/04/13 07:51:02;;;;;;;1.48;0.70;;;;;;;;;;5065515;28;20599;-52
2021/04/13 07:53:33;;;;;;;0.93;0.80;;;;;;;;;;5066070;28;20369;-49
2021/04/13 07:56:15;;;;;;;2.00;1.10;;;;;;;;;;5065260;28;20047;-51
2021/04/13 07:59:08;;;;;;;3.30;0.82;;;;;;;;;;5065677;28;20495;-50
2021/04/13 08:01:35;;;;;;;2.60;0.68;;;;;;;;;;5066713;28;20052;-51
2021/04/13 08:04:02;;;;;;;1.15;0.55;;;;;;;;;;5066763;28;20098;-50
2021/04/13 08:06:28;;;;;;;1.17;0.55;;;;;;;;;;5067582;28;20037;-50
2021/04/13 08:09:13;;;;;;;0.80;0.77;;;;;;;;;;5074430;28;20060;-46
2021/04/13 08:11:59;;;;;;;0.73;0.70;;;;;;;;;;5068146;28;20064;-50
2021/04/13 08:14:30;;;;;;;1.23;0.80;;;;;;;;;;5065638;28;20615;-49
2021/04/13 08:17:03;;;;;;;0.93;0.77;;;;;;;;;;5062470;28;20045;-47
2021/04/13 08:19:33;;;;;;;0.90;0.70;;;;;;;;;;5066880;28;20047;-48
2021/04/13 08:22:09;;;;;;;1.20;0.93;;;;;;;;;;5069058;28;20101;-49
2021/04/13 08:24:37;;;;;;;1.20;1.10;;;;;;;;;;5067039;28;20045;-51
2021/04/13 08:27:13;;;;;;;0.98;0.80;;;;;;;;;;5065172;28;20036;-47
2021/04/13 08:29:44;;;;;;;0.57;0.57;;;;;;;;;;5065832;28;20443;-48
2021/04/13 08:35:03;;;;;;;0.77;0.70;;;;;;;;;;5068404;28;20143;-48
2021/04/13 08:37:31;;;;;;;1.33;0.60;;;;;;;;;;5064661;28;20391;-47
2021/04/13 08:40:13;;;;;;;1.25;0.90;;;;;;;;;;5069763;28;20040;-47
2021/04/13 08:42:45;;;;;;;1.92;1.10;;;;;;;;;;5068238;28;20044;-48
2021/04/13 08:45:32;;;;;;;2.83;0.77;;;;;;;;;;5069256;28;20049;-48
2021/04/13 08:48:05;;;;;;;1.38;0.88;;;;;;;;;;5067229;28;20064;-50
2021/04/13 08:50:34;;;;;;;2.05;0.70;;;;;;;;;;5067454;28;20048;-48
2021/04/13 08:53:06;;;;;;;2.55;1.00;;;;;;;;;;5067725;28;20040;-48
2021/04/13 08:55:35;;;;;;;3.75;1.00;;;;;;;;;;5065356;28;20862;-52
2021/04/13 08:58:20;;;;;;;3.75;0.90;;;;;;;;;;5069196;28;20496;-51
2021/04/13 09:00:53;;;;;;;0.75;0.60;;;;;;;;;;5068821;28;20045;-53
2021/04/13 09:03:40;;;;;;;1.30;0.80;;;;;;;;;;5066227;28;20047;-50
2021/04/13 09:06:12;;;;;;;0.60;0.60;;;;;;;;;;5066657;28;20041;-48
2021/04/13 09:08:58;;;;;;;1.05;0.70;;;;;;;;;;5067234;28;20061;-51
2021/04/13 09:11:29;;;;;;;0.45;0.45;;;;;;;;;;5067181;28;20114;-51
2021/04/13 09:14:14;;;;;;;3.20;0.80;;;;;;;;;;5065464;28;20037;-51
2021/04/13 09:16:45;;;;;;;2.03;0.90;;;;;;;;;;5064706;28;20105;-51
2021/04/13 09:19:22;;;;;;;1.40;0.77;;;;;;;;;;5066012;28;20056;-53
2021/04/13 09:21:52;;;;;;;2.17;0.80;;;;;;;;;;5069183;28;20102;-53
2021/04/13 09:24:21;;;;;;;0.88;0.70;;;;;;;;;;5067594;28;20044;-48
2021/04/13 09:26:50;;;;;;;1.45;0.70;;;;;;;;;;5071549;28;20068;-51
2021/04/13 09:29:29;;;;;;;0.55;0.47;;;;;;;;;;5069114;28;20427;-48
2021/04/13 09:31:56;;;;;;;2.30;1.08;;;;;;;;;;5071906;28;20049;-50
2021/04/13 09:34:32;;;;;;;1.52;0.68;;;;;;;;;;5071383;28;20041;-49
2021/04/13 09:37:05;;;;;;;1.00;0.80;;;;;;;;;;5070515;28;20677;-50
2021/04/13 09:39:34;;;;;;;1.63;0.73;;;;;;;;;;5068676;28;20048;-47
2021/04/13 09:42:19;;;;;;;0.60;0.60;;;;;;;;;;5071078;28;20544;-46
2021/04/13 09:45:04;;;;;;;0.57;0.50;;;;;;;;;;5067961;28;20040;-47
2021/04/13 09:47:49;;;;;;;0.90;0.80;;;;;;;;;;5068609;28;20144;-49
2021/04/13 09:50:27;;;;;;;3.33;0.82;;;;;;;;;;5067206;28;20060;-53
2021/04/13 09:52:57;;;;;;;3.38;0.80;;;;;;;;;;5066900;28;20095;-50
2021/04/13 09:55:38;;;;;;;1.00;0.68;;;;;;;;;;5067823;28;20041;-48
2021/04/13 09:58:04;;;;;;;3.45;0.90;;;;;;;;;;5066470;28;20079;-48
2021/04/13 10:00:47;;;;;;;2.50;0.80;;;;;;;;;;5071395;28;20787;-50
2021/04/13 10:03:33;;;;;;;0.70;0.52;;;;;;;;;;5067907;28;20048;-52
2021/04/13 10:06:00;;;;;;;1.13;0.80;;;;;;;;;;5066654;28;20045;-51
2021/04/13 10:08:30;;;;;;;0.50;0.50;;;;;;;;;;5067667;28;20048;-49
2021/04/13 10:11:02;;;;;;;1.20;0.80;;;;;;;;;;5069535;28;20127;-54
2021/04/13 10:13:34;;;;;;;1.25;0.82;;;;;;;;;;5066421;28;20087;-49
2021/04/13 10:16:05;;;;;;;3.13;0.65;;;;;;;;;;5066159;28;20065;-53
2021/04/13 10:18:49;;;;;;;0.80;0.60;;;;;;;;;;5069032;28;20047;-53
2021/04/13 10:21:35;;;;;;;2.85;1.77;;;;;;;;;;5065874;28;20508;-51
2021/04/13 10:24:02;;;;;;;25.48;11.75;;;;;;;;;;5064376;28;20148;-53
2021/04/13 10:26:34;;;;;;;22.98;11.55;;;;;;;;;;5067882;28;20046;-47
2021/04/13 10:29:10;;;;;;;4.18;1.92;;;;;;;;;;5071757;28;20135;-48
2021/04/13 10:31:52;;;;;;;4.60;2.80;;;;;;;;;;5068930;28;20044;-47
2021/04/13 10:34:21;;;;;;;2.40;1.30;;;;;;;;;;5069862;28;20044;-48
2021/04/13 10:36:58;;;;;;;5.93;3.70;;;;;;;;;;5068406;28;20053;-48
2021/04/13 10:39:42;;;;;;;6.07;3.47;;;;;;;;;;5067205;28;20132;-53
2021/04/13 10:42:27;;;;;;;6.65;3.50;;;;;;;;;;5066273;28;20041;-47
2021/04/13 10:44:56;;;;;;;7.15;2.95;;;;;;;;;;5066667;28;20055;-47
2021/04/13 10:47:28;;;;;;;4.15;1.77;;;;;;;;;;5066460;28;20044;-50
2021/04/13 10:50:16;;;;;;;2.42;1.63;;;;;;;;;;5070794;28;20044;-50
2021/04/13 10:52:55;;;;;;;1.33;0.70;;;;;;;;;;5070570;28;20044;-50
2021/04/13 10:55:20;;;;;;;;;;;;;;;;;;5071201;28;20633;-52
2021/04/13 10:58:05;;;;;;;1.02;0.65;;;;;;;;;;5070356;28;20014;-51
2021/04/13 11:00:35;;;;;;;2.28;1.55;;;;;;;;;;5063837;28;20058;-52
2021/04/13 11:03:23;;;;;;;2.08;0.90;;;;;;;;;;5062300;28;20041;-52
2021/04/13 11:05:52;;;;;;;3.42;2.13;;;;;;;;;;5070933;28;20049;-52
2021/04/13 11:08:32;;;;;;;1.42;1.17;;;;;;;;;;5067221;28;20076;-48
2021/04/13 11:11:13;;;;;;;0.85;0.73;;;;;;;;;;5068850;28;20040;-50
2021/04/13 11:13:58;;;;;;;1.23;0.60;;;;;;;;;;5067282;28;20102;-49
2021/04/13 11:16:43;;;;;;;1.05;0.70;;;;;;;;;;5067040;28;20076;-52
2021/04/13 11:19:33;;;;;;;1.75;0.93;;;;;;;;;;5070483;28;20127;-47
2021/04/13 11:22:19;;;;;;;4.10;2.30;;;;;;;;;;5068115;28;20056;-52
2021/04/13 11:24:54;;;;;;;5.63;1.55;;;;;;;;;;5065122;28;20504;-50
2021/04/13 11:27:23;;;;;;;0.82;0.50;;;;;;;;;;5069268;28;20512;-54
2021/04/13 11:30:11;;;;;;;13.38;5.95;;;;;;;;;;5069289;28;20131;-53
2021/04/13 11:32:43;;;;;;;4.28;1.60;;;;;;;;;;5067478;28;20538;-49
2021/04/13 11:35:27;;;;;;;2.08;0.80;;;;;;;;;;5068992;28;20068;-52
2021/04/13 11:38:02;;;;;;;2.67;1.40;;;;;;;;;;5067218;28;20105;-52
2021/04/13 11:41:15;;;;;;;1.65;0.73;;;;;;;;;;5066755;28;20514;-49
2021/04/13 11:43:53;;;;;;;4.03;1.00;;;;;;;;;;5066497;28;20084;-53
2021/04/13 11:46:23;;;;;;;3.88;1.95;;;;;;;;;;5069131;28;20064;-49
2021/04/13 11:48:55;;;;;;;3.58;1.20;;;;;;;;;;5070814;28;20044;-49
2021/04/13 11:51:23;;;;;;;4.07;1.63;;;;;;;;;;5070755;28;20110;-52
2021/04/13 11:53:51;;;;;;;8.00;3.50;;;;;;;;;;5066191;28;20119;-50
2021/04/13 11:56:24;;;;;;;4.70;2.40;;;;;;;;;;5066556;28;20060;-49
2021/04/13 11:59:10;;;;;;;9.20;3.53;;;;;;;;;;5069076;28;20056;-48
2021/04/13 12:01:36;;;;;;;2.67;1.25;;;;;;;;;;5067697;28;20041;-46
2021/04/13 12:04:06;;;;;;;1.27;0.80;;;;;;;;;;5069464;28;20109;-49
2021/04/13 12:06:52;;;;;;;2.80;0.80;;;;;;;;;;5065614;28;20503;-48
2021/04/13 12:09:38;;;;;;;1.55;0.70;;;;;;;;;;5067347;28;20059;-49
2021/04/13 12:12:27;;;;;;;1.50;0.90;;;;;;;;;;5066422;28;20047;-47
2021/04/13 12:14:53;;;;;;;1.40;0.80;;;;;;;;;;5052992;28;20554;-50
2021/04/13 12:17:34;;;;;;;0.95;0.50;;;;;;;;;;5065319;28;20151;-49
2021/04/13 12:20:17;;;;;;;1.17;0.70;;;;;;;;;;5067027;28;20041;-48
2021/04/13 12:22:43;;;;;;;1.73;1.00;;;;;;;;;;5068575;28;20048;-52
2021/04/13 12:25:28;;;;;;;1.63;0.80;;;;;;;;;;5063417;28;20040;-49
2021/04/13 12:28:07;;;;;;;1.55;1.02;;;;;;;;;;5068183;28;20411;-51
2021/04/13 12:30:39;;;;;;;4.38;1.10;;;;;;;;;;5066154;28;20036;-47
2021/04/13 12:33:05;;;;;;;2.17;0.80;;;;;;;;;;5067427;28;20045;-48
2021/04/13 12:35:49;;;;;;;2.50;1.02;;;;;;;;;;5066794;28;20051;-50
2021/04/13 12:38:35;;;;;;;2.10;0.90;;;;;;;;;;5069161;28;20040;-48
2021/04/13 12:41:05;;;;;;;2.97;1.30;;;;;;;;;;5069722;28;20040;-52
2021/04/13 12:43:37;;;;;;;4.10;1.30;;;;;;;;;;5069596;28;20515;-49
2021/04/13 12:46:17;;;;;;;2.65;1.67;;;;;;;;;;5067716;28;20047;-50
2021/04/13 12:48:45;;;;;;;2.33;1.20;;;;;;;;;;5057116;28;20053;-49
2021/04/13 12:51:13;;;;;;;1.98;1.27;;;;;;;;;;5068381;28;20136;-48
2021/04/13 12:53:39;;;;;;;2.20;1.00;;;;;;;;;;5068317;28;20040;-50
2021/04/13 12:56:11;;;;;;;3.20;0.90;;;;;;;;;;5066845;28;20048;-49
2021/04/13 12:58:39;;;;;;;3.15;0.80;;;;;;;;;;5066721;28;20044;-53
2021/04/13 13:01:05;;;;;;;;;;;;;;;;;;5065744;28;20041;-50
2021/04/13 13:03:39;;;;;;;1.30;0.85;;;;;;;;;;5069713;28;20352;-48
2021/04/13 13:06:13;;;;;;;2.25;1.10;;;;;;;;;;5068797;28;20051;-47
2021/04/13 13:08:40;;;;;;;1.25;0.70;;;;;;;;;;5066173;28;20067;-53
2021/04/13 13:11:07;;;;;;;1.50;1.00;;;;;;;;;;5066634;28;20123;-50
2021/04/13 13:13:33;;;;;;;;;;;;;;;;;;5066504;28;20044;-51
2021/04/13 13:16:10;;;;;;;2.88;1.10;;;;;;;;;;5064919;28;19924;-50
2021/04/13 13:18:37;;;;;;;1.83;0.93;;;;;;;;;;5064440;28;20045;-53
2021/04/13 13:21:10;;;;;;;1.52;0.70;;;;;;;;;;5060422;28;20057;-53
2021/04/13 13:23:38;;;;;;;1.65;0.82;;;;;;;;;;5064385;28;20500;-50
2021/04/13 13:26:23;;;;;;;1.75;0.80;;;;;;;;;;5068431;28;20040;-51
2021/04/13 13:28:49;;;;;;;2.42;0.95;;;;;;;;;;5064521;28;20063;-49
2021/04/13 13:31:15;;;;;;;2.03;0.77;;;;;;;;;;5064652;28;20040;-50
2021/04/13 13:33:43;;;;;;;3.53;0.70;;;;;;;;;;5064683;28;20497;-49
2021/04/13 13:36:09;;;;;;;;;;;;;;;;;;5069023;28;20076;-52
2021/04/13 13:38:37;;;;;;;1.63;1.13;;;;;;;;;;5066112;28;19920;-47
2021/04/13 13:41:04;;;;;;;2.10;1.20;;;;;;;;;;5067334;28;20396;-47
2021/04/13 13:43:32;;;;;;;1.45;1.00;;;;;;;;;;5069187;28;20442;-50
2021/04/13 13:46:28;;;;;;;2.67;1.20;;;;;;;;;;5069095;28;20129;-51
2021/04/13 13:49:14;;;;;;;3.63;1.10;;;;;;;;;;5062584;28;20048;-51
2021/04/13 13:51:40;;;;;;;2.80;0.80;;;;;;;;;;5066216;28;20098;-48
2021/04/13 13:54:33;;;;;;;2.20;0.90;;;;;;;;;;5069929;28;20153;-51
2021/04/13 13:57:10;;;;;;;2.08;0.98;;;;;;;;;;5065801;28;20056;-51
2021/04/13 13:59:38;;;;;;;2.38;1.02;;;;;;;;;;5067046;28;20036;-52
2021/04/13 14:02:17;;;;;;;3.35;1.15;;;;;;;;;;5068583;28;20510;-48
2021/04/13 14:04:44;;;;;;;2.78;1.35;;;;;;;;;;5071270;28;20044;-52
2021/04/13 14:07:11;;;;;;;1.90;1.20;;;;;;;;;;5069904;28;20040;-50
2021/04/13 14:09:41;;;;;;;2.90;0.85;;;;;;;;;;5071670;28;20033;-51
2021/04/13 14:12:27;;;;;;;2.67;1.50;;;;;;;;;;5068679;28;20052;-48
2021/04/13 14:14:54;;;;;;;2.22;1.10;;;;;;;;;;5067705;28;20570;-53
2021/04/13 14:17:29;;;;;;;3.10;1.20;;;;;;;;;;5064270;28;20049;-47
2021/04/13 14:20:04;;;;;;;2.83;1.20;;;;;;;;;;5069251;28;20052;-50
2021/04/13 14:22:30;;;;;;;4.47;1.40;;;;;;;;;;5068724;28;20059;-51
2021/04/13 14:25:18;;;;;;;2.80;1.23;;;;;;;;;;5071332;28;20043;-52
2021/04/13 14:27:44;;;;;;;2.20;1.00;;;;;;;;;;5072377;28;20049;-54
2021/04/13 14:30:23;;;;;;;5.22;0.98;;;;;;;;;;5066291;28;20504;-49
2021/04/13 14:32:52;;;;;;;1.60;0.90;;;;;;;;;;5067785;28;20044;-48
2021/04/13 14:35:18;;;;;;;2.47;1.10;;;;;;;;;;5063710;28;20047;-49
2021/04/13 14:37:44;;;;;;;3.63;1.80;;;;;;;;;;5068096;28;20048;-52
2021/04/13 14:40:14;;;;;;;3.28;1.20;;;;;;;;;;5070725;28;20106;-52
2021/04/13 14:42:56;;;;;;;2.03;1.17;;;;;;;;;;5069341;28;20052;-51
2021/04/13 14:45:24;;;;;;;2.00;0.88;;;;;;;;;;5065414;28;20051;-48
2021/04/13 14:47:55;;;;;;;1.25;0.90;;;;;;;;;;5069224;28;20562;-51
2021/04/13 14:50:24;;;;;;;2.40;1.08;;;;;;;;;;5068326;28;20033;-53
2021/04/13 14:52:52;;;;;;;3.83;1.15;;;;;;;;;;5067777;28;20048;-54
2021/04/13 14:55:18;;;;;;;;;;;;;;;;;;5070218;28;20562;-52
2021/04/13 14:57:45;;;;;;;1.73;1.00;;;;;;;;;;5068882;28;19947;-52
2021/04/13 15:00:13;;;;;;;1.33;0.75;;;;;;;;;;5070368;28;20037;-52
2021/04/13 15:02:40;;;;;;;2.58;0.98;;;;;;;;;;5069467;28;20692;-52
2021/04/13 15:05:07;;;;;;;3.40;2.15;;;;;;;;;;5064748;28;20041;-52
2021/04/13 15:07:33;;;;;;;5.32;1.52;;;;;;;;;;5066529;28;20040;-51
2021/04/13 15:10:00;;;;;;;2.05;0.90;;;;;;;;;;5070108;28;20556;-53
2021/04/13 15:12:26;;;;;;;5.00;0.90;;;;;;;;;;5069348;28;20090;-47
2021/04/13 15:14:55;;;;;;;2.00;0.77;;;;;;;;;;5069136;28;20048;-53
2021/04/13 15:17:24;;;;;;;3.80;1.30;;;;;;;;;;5065613;28;20098;-49